createdAt,value
2023-04-10T00:00:43.215Z,41.93
2023-04-10T00:03:13.928Z,41.79
2023-04-10T00:05:42.296Z,41.88
2023-04-10T00:08:10.546Z,41.79
2023-04-10T00:10:38.791Z,41.76
2023-04-10T00:13:07.080Z,41.86
2023-04-10T00:15:35.253Z,41.83
2023-04-10T00:18:03.653Z,41.89
2023-04-10T00:20:33.163Z,41.81
2023-04-10T00:23:01.200Z,41.88
2023-04-10T00:25:29.420Z,41.83
2023-04-10T00:27:57.584Z,41.84
2023-04-10T00:30:26.044Z,41.88
2023-04-10T00:32:54.107Z,41.84
2023-04-10T00:35:22.182Z,41.89
2023-04-10T00:37:51.659Z,41.89
2023-04-10T00:40:19.816Z,41.99
2023-04-10T00:42:48.048Z,41.92
2023-04-10T00:45:16.120Z,41.81
2023-04-10T00:47:44.378Z,41.90
2023-04-10T00:50:12.742Z,42.00
2023-04-10T00:52:41.018Z,41.82
2023-04-10T00:55:11.857Z,41.93
2023-04-10T00:57:41.485Z,41.85
2023-04-10T01:00:10.888Z,41.89
2023-04-10T01:02:39.482Z,41.93
2023-04-10T01:05:07.926Z,42.05
2023-04-10T01:07:49.447Z,41.93
2023-04-10T01:10:28.048Z,41.99
2023-04-10T01:13:05.688Z,41.94
2023-04-10T01:15:43.204Z,41.87
2023-04-10T01:18:20.507Z,41.97
2023-04-10T01:20:48.720Z,42.08
2023-04-10T01:23:55.246Z,42.10
2023-04-10T01:26:40.781Z,41.94
2023-04-10T01:29:12.667Z,42.23
2023-04-10T01:31:47.753Z,42.07
2023-04-10T01:34:20.531Z,41.98
2023-04-10T01:36:52.077Z,42.04
2023-04-10T01:39:21.564Z,42.19
2023-04-10T01:41:52.988Z,41.96
2023-04-10T01:44:25.656Z,42.22
2023-04-10T01:46:55.405Z,42.08
2023-04-10T01:49:26.540Z,41.79
2023-04-10T01:51:58.458Z,41.96
2023-04-10T01:54:28.350Z,42.16
2023-04-10T01:56:57.205Z,41.97
2023-04-10T01:59:27.478Z,42.02
2023-04-10T02:01:57.948Z,42.01
2023-04-10T02:04:27.791Z,42.07
2023-04-10T02:07:04.584Z,42.10
2023-04-10T02:09:41.626Z,41.94
2023-04-10T02:12:14.261Z,42.12
2023-04-10T02:14:46.784Z,42.04
2023-04-10T02:17:17.203Z,42.06
2023-04-10T02:19:48.263Z,42.09
2023-04-10T02:22:17.189Z,42.04
2023-04-10T02:24:45.481Z,42.16
2023-04-10T02:27:13.501Z,42.12
2023-04-10T02:29:42.992Z,42.11
2023-04-10T02:32:11.731Z,42.01
2023-04-10T02:34:39.876Z,42.07
2023-04-10T02:37:08.032Z,42.06
2023-04-10T02:39:37.188Z,41.93
2023-04-10T02:42:05.820Z,41.99
2023-04-10T02:44:33.887Z,42.03
2023-04-10T02:47:03.471Z,42.07
2023-04-10T02:49:31.626Z,42.08
2023-04-10T02:51:59.772Z,42.11
2023-04-10T02:54:27.853Z,42.05
2023-04-10T02:56:56.931Z,42.10
2023-04-10T02:59:25.656Z,41.97
2023-04-10T03:01:53.792Z,42.13
2023-04-10T03:04:23.385Z,42.03
2023-04-10T03:06:51.510Z,42.11
2023-04-10T03:09:19.818Z,42.07
2023-04-10T03:11:47.833Z,42.12
2023-04-10T03:14:16.915Z,42.06
2023-04-10T03:16:44.972Z,41.95
2023-04-10T03:19:13.457Z,42.05
2023-04-10T03:21:43.242Z,42.14
2023-04-10T03:24:14.108Z,42.07
2023-04-10T03:26:44.479Z,41.92
2023-04-10T03:29:12.670Z,42.09
2023-04-10T03:31:40.837Z,42.19
2023-04-10T03:34:09.174Z,42.19
2023-04-10T03:36:37.278Z,42.22
2023-04-10T03:39:07.062Z,41.97
2023-04-10T03:41:35.166Z,42.15
2023-04-10T03:44:03.951Z,42.04
2023-04-10T03:46:32.140Z,42.23
2023-04-10T03:49:00.478Z,42.19
2023-04-10T03:51:28.844Z,42.16
2023-04-10T03:53:57.136Z,42.14
2023-04-10T03:56:26.698Z,42.11
2023-04-10T03:58:54.806Z,42.13
2023-04-10T04:01:23.579Z,42.14
2023-04-10T04:03:52.455Z,42.13
2023-04-10T04:06:21.038Z,42.22
2023-04-10T04:08:49.208Z,42.16
2023-04-10T04:11:17.463Z,42.10
2023-04-10T04:13:46.934Z,42.26
2023-04-10T04:16:15.188Z,42.16
2023-04-10T04:18:43.621Z,42.17
2023-04-10T04:21:11.717Z,42.19
2023-04-10T04:23:39.884Z,42.08
2023-04-10T04:26:08.014Z,42.33
2023-04-10T04:28:36.149Z,42.17
2023-04-10T04:31:06.583Z,42.31
2023-04-10T04:33:35.739Z,42.26
2023-04-10T04:36:03.802Z,42.40
2023-04-10T04:38:31.947Z,42.27
2023-04-10T04:41:00.183Z,42.24
2023-04-10T04:43:28.764Z,42.34
2023-04-10T04:45:56.958Z,42.29
2023-04-10T04:48:26.558Z,42.27
2023-04-10T04:50:54.825Z,42.26
2023-04-10T04:53:23.612Z,42.57
2023-04-10T04:55:51.735Z,42.76
2023-04-10T04:58:20.662Z,42.82
2023-04-10T05:00:48.793Z,42.82
2023-04-10T05:03:16.985Z,42.77
2023-04-10T05:05:46.626Z,42.87
2023-04-10T05:08:14.710Z,42.77
2023-04-10T05:10:42.774Z,42.73
2023-04-10T05:13:11.138Z,42.65
2023-04-10T05:15:39.434Z,42.64
2023-04-10T05:18:07.786Z,42.30
2023-04-10T05:20:36.958Z,42.48
2023-04-10T05:23:07.283Z,42.62
2023-04-10T05:25:36.436Z,42.34
2023-04-10T05:28:04.660Z,42.17
2023-04-10T05:30:32.850Z,42.38
2023-04-10T05:33:01.071Z,42.54
2023-04-10T05:35:29.316Z,42.15
2023-04-10T05:37:59.000Z,42.28
2023-04-10T05:40:29.648Z,42.20
2023-04-10T05:42:57.954Z,42.33
2023-04-10T05:45:26.071Z,42.18
2023-04-10T05:47:54.448Z,42.16
2023-04-10T05:50:23.165Z,42.19
2023-04-10T05:52:51.458Z,42.37
2023-04-10T05:55:19.796Z,42.17
2023-04-10T05:57:51.354Z,42.18
2023-04-10T06:00:20.012Z,42.13
2023-04-10T06:02:48.255Z,42.23
2023-04-10T06:05:16.880Z,42.25
2023-04-10T06:07:45.133Z,42.28
2023-04-10T06:10:17.157Z,42.12
2023-04-10T06:12:45.292Z,42.13
2023-04-10T06:15:14.872Z,41.95
2023-04-10T06:17:44.652Z,41.95
2023-04-10T06:20:13.671Z,42.01
2023-04-10T06:22:41.760Z,42.06
2023-04-10T06:25:10.845Z,41.93
2023-04-10T06:27:38.996Z,41.97
2023-04-10T06:30:09.139Z,41.90
2023-04-10T06:32:38.743Z,41.92
2023-04-10T06:35:07.439Z,41.89
2023-04-10T06:37:35.659Z,41.90
2023-04-10T06:40:05.969Z,41.86
2023-04-10T06:42:34.149Z,41.76
2023-04-10T06:45:02.935Z,41.84
2023-04-10T06:47:31.703Z,41.83
2023-04-10T06:50:01.603Z,41.85
2023-04-10T06:52:29.779Z,41.94
2023-04-10T06:54:57.913Z,42.06
2023-04-10T06:57:25.999Z,41.97
2023-04-10T06:59:54.179Z,41.91
2023-04-10T07:02:25.239Z,41.91
2023-04-10T07:04:53.767Z,42.09
2023-04-10T07:07:23.228Z,42.11
2023-04-10T07:09:54.097Z,42.12
2023-04-10T07:12:22.932Z,42.16
2023-04-10T07:14:51.205Z,42.09
2023-04-10T07:17:19.400Z,42.22
2023-04-10T07:19:47.624Z,42.23
2023-04-10T07:22:15.865Z,42.14
2023-04-10T07:24:45.779Z,42.27
2023-04-10T07:27:13.905Z,42.33
2023-04-10T07:29:42.062Z,42.24
2023-04-10T07:32:10.310Z,42.16
2023-04-10T07:34:38.497Z,42.20
2023-04-10T07:37:07.196Z,42.31
2023-04-10T07:39:35.871Z,42.31
2023-04-10T07:42:05.385Z,42.26
2023-04-10T07:44:33.636Z,42.43
2023-04-10T07:47:01.759Z,42.35
2023-04-10T07:49:29.837Z,42.59
2023-04-10T07:51:58.595Z,42.57
2023-04-10T07:54:26.799Z,42.61
2023-04-10T07:56:54.819Z,42.56
2023-04-10T07:59:24.468Z,42.71
2023-04-10T08:01:52.554Z,42.66
2023-04-10T08:04:21.339Z,42.72
2023-04-10T08:06:50.598Z,42.68
2023-04-10T08:09:19.189Z,42.75
2023-04-10T08:11:47.952Z,42.82
2023-04-10T08:14:18.248Z,42.85
2023-04-10T08:16:48.189Z,42.90
2023-04-10T08:19:16.641Z,42.87
2023-04-10T08:21:44.695Z,42.83
2023-04-10T08:24:12.867Z,42.96
2023-04-10T08:26:40.987Z,42.83
2023-04-10T08:29:09.108Z,42.95
2023-04-10T08:31:37.128Z,42.87
2023-04-10T08:34:06.570Z,43.10
2023-04-10T08:36:35.798Z,43.00
2023-04-10T08:39:06.400Z,43.08
2023-04-10T08:41:35.058Z,43.03
2023-04-10T08:44:03.220Z,43.13
2023-04-10T08:46:37.208Z,43.16
2023-04-10T08:49:06.722Z,43.13
2023-04-10T08:51:42.937Z,43.19
2023-04-10T08:54:19.573Z,43.32
2023-04-10T08:56:51.356Z,43.07
2023-04-10T08:59:19.465Z,43.44
2023-04-10T09:01:48.500Z,43.42
2023-04-10T09:04:18.310Z,43.30
2023-04-10T09:06:46.518Z,43.40
2023-04-10T09:09:14.642Z,43.37
2023-04-10T09:12:00.741Z,43.42
2023-04-10T09:14:31.936Z,43.58
2023-04-10T09:17:14.597Z,43.42
2023-04-10T09:19:45.029Z,43.65
2023-04-10T09:22:13.879Z,43.52
2023-04-10T09:24:43.346Z,43.59
2023-04-10T09:27:11.788Z,43.62
2023-04-10T09:29:42.704Z,43.80
2023-04-10T09:32:11.007Z,43.86
2023-04-10T09:34:56.845Z,43.73
2023-04-10T09:37:32.654Z,43.93
2023-04-10T09:40:01.342Z,43.91
2023-04-10T09:42:33.723Z,44.02
2023-04-10T09:45:02.560Z,44.08
2023-04-10T09:47:34.676Z,44.10
2023-04-10T09:50:04.189Z,43.97
2023-04-10T09:52:33.573Z,43.95
2023-04-10T09:55:04.513Z,43.94
2023-04-10T09:57:34.256Z,43.70
2023-04-10T10:00:06.795Z,43.84
2023-04-10T10:02:39.131Z,43.83
2023-04-10T10:05:10.260Z,43.96
2023-04-10T10:07:39.884Z,44.06
2023-04-10T10:10:09.276Z,43.95
2023-04-10T10:12:46.722Z,44.03
2023-04-10T10:15:21.946Z,43.98
2023-04-10T10:17:57.425Z,44.09
2023-04-10T10:20:28.063Z,44.12
2023-04-10T10:23:00.263Z,44.21
2023-04-10T10:25:31.897Z,44.06
2023-04-10T10:28:03.975Z,44.22
2023-04-10T10:30:33.728Z,44.11
2023-04-10T10:33:06.743Z,44.21
2023-04-10T10:35:37.586Z,44.18
2023-04-10T10:38:06.395Z,44.23
2023-04-10T10:40:42.509Z,44.25
2023-04-10T10:43:18.113Z,44.10
2023-04-10T10:45:53.669Z,44.30
2023-04-10T10:48:22.000Z,44.20
2023-04-10T10:50:57.475Z,44.17
2023-04-10T10:53:37.257Z,44.23
2023-04-10T10:56:37.170Z,44.23
2023-04-10T10:59:05.316Z,44.29
2023-04-10T11:01:33.603Z,44.17
2023-04-10T11:04:22.574Z,44.30
2023-04-10T11:06:53.318Z,44.33
2023-04-10T11:09:50.507Z,44.43
2023-04-10T11:12:21.551Z,44.34
2023-04-10T11:14:59.146Z,44.26
2023-04-10T11:17:51.226Z,44.27
2023-04-10T11:20:22.302Z,44.20
2023-04-10T11:23:12.352Z,44.33
2023-04-10T11:25:51.253Z,44.15
2023-04-10T11:28:40.508Z,44.16
2023-04-10T11:31:19.782Z,44.14
2023-04-10T11:33:48.846Z,44.23
2023-04-10T11:36:18.602Z,44.21
2023-04-10T11:38:58.848Z,44.14
2023-04-10T11:41:30.412Z,44.20
2023-04-10T11:43:59.147Z,44.19
2023-04-10T11:46:27.701Z,44.25
2023-04-10T11:48:57.440Z,44.34
2023-04-10T11:51:27.249Z,44.19
2023-04-10T11:54:08.046Z,44.40
2023-04-10T11:56:36.974Z,44.49
2023-04-10T11:59:07.872Z,44.45
2023-04-10T12:01:36.166Z,44.29
2023-04-10T12:04:07.934Z,44.54
2023-04-10T12:06:36.285Z,44.29
2023-04-10T12:09:17.498Z,44.46
2023-04-10T12:11:54.246Z,44.38
2023-04-10T12:14:23.488Z,44.43
2023-04-10T12:16:52.799Z,44.39
2023-04-10T12:19:21.733Z,44.46
2023-04-10T12:21:50.271Z,44.37
2023-04-10T12:24:44.416Z,44.57
2023-04-10T12:27:22.956Z,44.58
2023-04-10T12:29:53.965Z,44.39
2023-04-10T12:32:22.879Z,44.41
2023-04-10T12:34:51.885Z,44.33
2023-04-10T12:37:20.225Z,44.40
2023-04-10T12:39:49.943Z,44.52
2023-04-10T12:42:20.844Z,44.48
2023-04-10T12:44:53.462Z,44.29
2023-04-10T12:47:22.079Z,44.44
2023-04-10T12:50:10.184Z,44.49
2023-04-10T12:52:39.964Z,44.51
2023-04-10T12:55:14.796Z,44.44
2023-04-10T12:57:43.697Z,44.50
2023-04-10T13:00:14.286Z,44.49
2023-04-10T13:02:42.668Z,44.64
2023-04-10T13:05:11.332Z,44.52
2023-04-10T13:07:41.111Z,44.45
2023-04-10T13:10:13.683Z,44.48
2023-04-10T13:12:42.732Z,44.40
2023-04-10T13:15:11.869Z,44.30
2023-04-10T13:17:41.210Z,44.36
2023-04-10T13:20:11.024Z,44.16
2023-04-10T13:22:39.344Z,44.35
2023-04-10T13:25:07.938Z,44.49
2023-04-10T13:27:37.411Z,44.30
2023-04-10T13:30:06.210Z,44.12
2023-04-10T13:32:34.432Z,44.05
2023-04-10T13:35:02.563Z,44.10
2023-04-10T13:37:30.933Z,44.37
2023-04-10T13:39:59.117Z,44.18
2023-04-10T13:42:27.250Z,44.12
2023-04-10T13:44:56.671Z,44.00
2023-04-10T13:47:24.758Z,44.06
2023-04-10T13:49:52.923Z,43.87
2023-04-10T13:52:21.296Z,43.85
2023-04-10T13:54:49.369Z,43.91
2023-04-10T13:57:17.428Z,44.11
2023-04-10T13:59:45.484Z,44.12
2023-04-10T14:02:15.033Z,44.03
2023-04-10T14:04:46.151Z,43.84
2023-04-10T14:07:14.340Z,43.65
2023-04-10T14:09:42.468Z,43.51
2023-04-10T14:12:12.027Z,43.54
2023-04-10T14:14:42.750Z,43.65
2023-04-10T14:17:11.637Z,43.67
2023-04-10T14:19:43.205Z,43.59
2023-04-10T14:22:11.327Z,43.68
2023-04-10T14:24:39.505Z,43.42
2023-04-10T14:27:07.556Z,43.71
2023-04-10T14:29:40.558Z,43.70
2023-04-10T14:32:12.969Z,43.45
2023-04-10T14:34:42.500Z,43.34
2023-04-10T14:37:10.729Z,43.43
2023-04-10T14:39:38.978Z,43.41
2023-04-10T14:42:07.318Z,43.60
2023-04-10T14:44:38.202Z,43.30
2023-04-10T14:47:06.597Z,43.59
2023-04-10T14:49:35.749Z,43.52
2023-04-10T14:52:05.184Z,43.16
2023-04-10T14:54:33.309Z,43.19
2023-04-10T14:57:01.969Z,43.45
2023-04-10T14:59:31.823Z,43.07
2023-04-10T15:02:00.081Z,43.23
2023-04-10T15:04:28.583Z,42.96
2023-04-10T15:06:56.617Z,43.25
2023-04-10T15:09:26.479Z,43.10
2023-04-10T15:11:55.633Z,43.06
2023-04-10T15:14:23.716Z,42.95
2023-04-10T15:16:53.987Z,42.88
2023-04-10T15:19:22.387Z,43.30
2023-04-10T15:21:50.722Z,43.33
2023-04-10T15:24:19.041Z,43.07
2023-04-10T15:26:48.465Z,43.22
2023-04-10T15:29:16.756Z,43.12
2023-04-10T15:31:44.892Z,43.11
2023-04-10T15:34:14.134Z,43.15
2023-04-10T15:36:42.178Z,43.06
2023-04-10T15:39:12.071Z,42.71
2023-04-10T15:41:40.210Z,42.58
2023-04-10T15:44:09.720Z,42.75
2023-04-10T15:46:38.135Z,42.60
2023-04-10T15:49:06.304Z,42.55
2023-04-10T15:51:34.301Z,42.91
2023-04-10T15:54:04.916Z,42.57
2023-04-10T15:56:34.158Z,42.68
2023-04-10T15:59:02.222Z,42.62
2023-04-10T16:01:31.877Z,42.74
2023-04-10T16:04:00.238Z,42.31
2023-04-10T16:06:29.166Z,42.75
2023-04-10T16:08:57.271Z,42.44
2023-04-10T16:11:25.589Z,42.70
2023-04-10T16:13:53.839Z,42.34
2023-04-10T16:16:21.982Z,42.72
2023-04-10T16:18:51.960Z,42.49
2023-04-10T16:21:21.736Z,42.26
2023-04-10T16:23:49.830Z,42.34
2023-04-10T16:26:19.516Z,42.51
2023-04-10T16:28:47.534Z,42.52
2023-04-10T16:31:16.053Z,42.22
2023-04-10T16:33:44.291Z,42.61
2023-04-10T16:36:16.246Z,42.56
2023-04-10T16:38:45.214Z,42.35
2023-04-10T16:41:17.029Z,42.44
2023-04-10T16:43:45.240Z,42.15
2023-04-10T16:46:13.702Z,42.11
2023-04-10T16:48:41.996Z,42.35
2023-04-10T16:51:15.945Z,42.04
2023-04-10T16:53:45.851Z,42.31
2023-04-10T16:56:13.916Z,42.26
2023-04-10T16:58:42.197Z,41.95
2023-04-10T17:01:18.891Z,42.16
2023-04-10T17:03:48.356Z,42.14
2023-04-10T17:06:16.682Z,41.85
2023-04-10T17:08:46.368Z,41.87
2023-04-10T17:11:16.012Z,42.06
2023-04-10T17:13:44.208Z,42.04
2023-04-10T17:16:12.305Z,42.24
2023-04-10T17:18:41.700Z,42.12
2023-04-10T17:21:12.331Z,42.16
2023-04-10T17:23:41.217Z,41.89
2023-04-10T17:26:14.232Z,41.91
2023-04-10T17:28:44.873Z,42.03
2023-04-10T17:31:13.601Z,41.86
2023-04-10T17:33:43.176Z,41.97
2023-04-10T17:36:12.738Z,42.01
2023-04-10T17:38:41.322Z,42.28
2023-04-10T17:41:14.906Z,42.44
2023-04-10T17:43:43.116Z,41.97
2023-04-10T17:46:14.393Z,42.17
2023-04-10T17:48:42.910Z,42.02
2023-04-10T17:51:11.267Z,42.22
2023-04-10T17:53:39.491Z,42.08
2023-04-10T17:56:08.951Z,42.03
2023-04-10T17:58:38.425Z,42.07
2023-04-10T18:01:07.333Z,42.01
2023-04-10T18:03:35.727Z,42.29
2023-04-10T18:06:03.892Z,42.12
2023-04-10T18:08:31.991Z,42.18
2023-04-10T18:11:00.109Z,42.20
2023-04-10T18:13:28.164Z,42.17
2023-04-10T18:15:57.549Z,42.14
2023-04-10T18:18:25.691Z,41.90
2023-04-10T18:20:53.888Z,42.03
2023-04-10T18:23:24.113Z,41.85
2023-04-10T18:25:54.229Z,41.91
2023-04-10T18:28:22.336Z,42.36
2023-04-10T18:30:53.930Z,42.07
2023-04-10T18:33:25.154Z,41.88
2023-04-10T18:35:55.794Z,42.11
2023-04-10T18:38:24.191Z,42.12
2023-04-10T18:40:56.612Z,42.16
2023-04-10T18:43:27.356Z,41.97
2023-04-10T18:45:55.717Z,42.39
2023-04-10T18:48:25.166Z,42.40
2023-04-10T18:50:54.132Z,42.38
2023-04-10T18:53:23.197Z,42.35
2023-04-10T18:55:52.552Z,42.31
2023-04-10T18:58:20.889Z,42.31
2023-04-10T19:00:49.230Z,42.19
2023-04-10T19:03:17.587Z,42.22
2023-04-10T19:05:47.898Z,42.25
2023-04-10T19:08:17.138Z,42.44
2023-04-10T19:10:45.425Z,42.22
2023-04-10T19:13:14.177Z,42.26
2023-04-10T19:15:43.294Z,42.38
2023-04-10T19:18:13.080Z,42.46
2023-04-10T19:20:52.865Z,42.58
2023-04-10T19:23:22.860Z,42.22
2023-04-10T19:25:53.049Z,42.33
2023-04-10T19:28:21.266Z,42.50
2023-04-10T19:30:49.523Z,42.27
2023-04-10T19:33:18.151Z,42.58
2023-04-10T19:35:46.506Z,42.47
2023-04-10T19:38:14.924Z,42.29
2023-04-10T19:40:45.393Z,42.27
2023-04-10T19:43:13.606Z,42.16
2023-04-10T19:45:41.830Z,42.21
2023-04-10T19:48:10.786Z,42.21
2023-04-10T19:50:39.314Z,42.62
2023-04-10T19:53:07.948Z,42.67
2023-04-10T19:55:36.429Z,42.68
2023-04-10T19:58:06.510Z,42.40
2023-04-10T20:00:35.531Z,42.41
2023-04-10T20:03:03.844Z,42.63
2023-04-10T20:05:32.509Z,42.67
2023-04-10T20:08:01.371Z,42.67
2023-04-10T20:10:29.682Z,43.12
2023-04-10T20:12:58.066Z,43.54
2023-04-10T20:15:30.490Z,43.43
2023-04-10T20:17:58.821Z,43.18
2023-04-10T20:20:27.686Z,43.72
2023-04-10T20:22:55.964Z,43.54
2023-04-10T20:25:24.112Z,43.23
2023-04-10T20:27:52.207Z,43.45
2023-04-10T20:30:20.554Z,43.05
2023-04-10T20:32:50.304Z,43.15
2023-04-10T20:35:18.565Z,43.16
2023-04-10T20:37:46.692Z,43.17
2023-04-10T20:40:14.965Z,43.15
2023-04-10T20:42:44.320Z,43.02
2023-04-10T20:45:13.242Z,42.91
2023-04-10T20:47:41.543Z,42.92
2023-04-10T20:50:12.868Z,42.75
2023-04-10T20:52:41.558Z,42.97
2023-04-10T20:55:13.293Z,42.63
2023-04-10T20:57:41.427Z,42.61
2023-04-10T21:00:12.125Z,42.52
2023-04-10T21:02:40.562Z,42.47
2023-04-10T21:05:09.576Z,42.60
2023-04-10T21:07:39.026Z,42.50
2023-04-10T21:10:07.928Z,42.43
2023-04-10T21:12:36.181Z,42.64
2023-04-10T21:15:04.549Z,42.32
2023-04-10T21:17:32.709Z,42.24
2023-04-10T21:20:01.213Z,42.69
2023-04-10T21:22:29.587Z,42.54
2023-04-10T21:24:59.193Z,42.49
2023-04-10T21:27:27.245Z,42.15
2023-04-10T21:29:55.399Z,42.37
2023-04-10T21:32:23.630Z,42.20
2023-04-10T21:34:51.776Z,42.25
2023-04-10T21:37:19.831Z,42.37
2023-04-10T21:39:47.940Z,42.22
2023-04-10T21:42:19.774Z,42.18
2023-04-10T21:44:47.860Z,42.52
2023-04-10T21:47:16.034Z,42.16
2023-04-10T21:49:44.284Z,42.21
2023-04-10T21:52:12.394Z,42.16
2023-04-10T21:54:40.456Z,42.33
2023-04-10T21:57:08.539Z,42.26
2023-04-10T21:59:38.154Z,42.49
2023-04-10T22:02:06.502Z,42.47
2023-04-10T22:04:41.375Z,42.17
2023-04-10T22:07:12.935Z,42.30
2023-04-10T22:09:41.047Z,42.68
2023-04-10T22:12:09.248Z,42.63
2023-04-10T22:14:38.730Z,42.31
2023-04-10T22:17:06.861Z,42.18
2023-04-10T22:19:35.123Z,42.31
2023-04-10T22:22:03.316Z,42.48
2023-04-10T22:24:33.919Z,42.59
2023-04-10T22:27:03.328Z,42.50
2023-04-10T22:29:31.406Z,42.31
2023-04-10T22:32:01.215Z,42.54
2023-04-10T22:34:29.431Z,42.47
2023-04-10T22:36:57.720Z,42.18
2023-04-10T22:39:26.190Z,42.60
2023-04-10T22:41:54.357Z,42.54
2023-04-10T22:44:22.962Z,42.42
2023-04-10T22:46:51.114Z,42.60
2023-04-10T22:49:20.574Z,42.52
2023-04-10T22:51:48.800Z,42.43
2023-04-10T22:54:17.176Z,42.39
2023-04-10T22:56:45.300Z,42.44
2023-04-10T22:59:13.331Z,42.81
2023-04-10T23:01:42.091Z,42.64
2023-04-10T23:04:10.483Z,42.54
2023-04-10T23:06:40.001Z,42.71
2023-04-10T23:09:08.039Z,42.49
2023-04-10T23:11:37.438Z,42.61
2023-04-10T23:14:05.596Z,42.61
2023-04-10T23:16:33.719Z,42.79
2023-04-10T23:19:01.835Z,42.82
2023-04-10T23:21:30.257Z,42.89
2023-04-10T23:23:59.721Z,42.86
2023-04-10T23:26:27.848Z,42.68
2023-04-10T23:28:56.115Z,42.92
2023-04-10T23:31:26.876Z,42.67
2023-04-10T23:33:55.240Z,42.94
2023-04-10T23:36:23.469Z,43.00
2023-04-10T23:38:51.752Z,42.66
2023-04-10T23:41:21.521Z,42.96
2023-04-10T23:43:50.152Z,42.73
2023-04-10T23:46:18.244Z,42.68
2023-04-10T23:48:46.779Z,42.88
2023-04-10T23:51:15.451Z,42.73
2023-04-10T23:53:44.089Z,42.87
2023-04-10T23:56:12.249Z,42.77
2023-04-10T23:58:41.877Z,43.09
